sensor_id;sensor_type;location;lat;lon;timestamp;temperature;humidity
2625;DHT22;1322;53.256;10.386;2024-03-02T00:00:07;10.80;99.90
2625;DHT22;1322;53.256;10.386;2024-03-02T00:02:46;10.80;99.90
2625;DHT22;1322;53.256;10.386;2024-03-02T00:05:14;10.70;99.90
2625;DHT22;1322;53.256;10.386;2024-03-02T00:07:45;10.70;99.90
2625;DHT22;1322;53.256;10.386;2024-03-02T00:10:14;10.70;99.90
2625;DHT22;1322;53.256;10.386;2024-03-02T00:12:42;10.80;99.90
2625;DHT22;1322;53.256;10.386;2024-03-02T00:15:40;10.90;99.90
2625;DHT22;1322;53.256;10.386;2024-03-02T00:18:11;10.90;99.90
2625;DHT22;1322;53.256;10.386;2024-03-02T00:20:37;10.90;99.90
2625;DHT22;1322;53.256;10.386;2024-03-02T00:23:07;10.80;99.90
2625;DHT22;1322;53.256;10.386;2024-03-02T00:25:44;10.80;99.90
2625;DHT22;1322;53.256;10.386;2024-03-02T00:28:35;10.80;99.90
2625;DHT22;1322;53.256;10.386;2024-03-02T00:31:06;10.80;99.90
2625;DHT22;1322;53.256;10.386;2024-03-02T00:36:00;10.70;99.90
2625;DHT22;1322;53.256;10.386;2024-03-02T00:38:27;10.70;99.90
2625;DHT22;1322;53.256;10.386;2024-03-02T00:40:54;10.70;99.90
2625;DHT22;1322;53.256;10.386;2024-03-02T00:46:03;10.70;99.90
2625;DHT22;1322;53.256;10.386;2024-03-02T00:48:29;10.60;99.90
2625;DHT22;1322;53.256;10.386;2024-03-02T00:50:57;10.60;99.90
2625;DHT22;1322;53.256;10.386;2024-03-02T00:53:25;10.60;99.90
2625;DHT22;1322;53.256;10.386;2024-03-02T00:55:52;10.50;99.90
2625;DHT22;1322;53.256;10.386;2024-03-02T00:58:18;10.60;99.90
2625;DHT22;1322;53.256;10.386;2024-03-02T01:00:44;10.70;99.90
2625;DHT22;1322;53.256;10.386;2024-03-02T01:03:09;10.70;99.90
2625;DHT22;1322;53.256;10.386;2024-03-02T01:05:36;10.70;99.90
2625;DHT22;1322;53.256;10.386;2024-03-02T01:08:02;10.60;99.90
2625;DHT22;1322;53.256;10.386;2024-03-02T01:10:28;10.60;99.90
2625;DHT22;1322;53.256;10.386;2024-03-02T01:12:53;10.70;99.90
2625;DHT22;1322;53.256;10.386;2024-03-02T01:15:19;10.60;99.90
2625;DHT22;1322;53.256;10.386;2024-03-02T01:17:45;10.70;99.90
2625;DHT22;1322;53.256;10.386;2024-03-02T01:20:11;10.60;99.90
2625;DHT22;1322;53.256;10.386;2024-03-02T01:22:37;10.60;99.90
2625;DHT22;1322;53.256;10.386;2024-03-02T01:25:04;10.60;99.90
2625;DHT22;1322;53.256;10.386;2024-03-02T01:27:30;10.50;99.90
2625;DHT22;1322;53.256;10.386;2024-03-02T01:29:55;10.60;99.90
2625;DHT22;1322;53.256;10.386;2024-03-02T01:32:21;10.50;99.90
2625;DHT22;1322;53.256;10.386;2024-03-02T01:34:47;10.60;99.90
2625;DHT22;1322;53.256;10.386;2024-03-02T01:37:12;10.60;99.90
2625;DHT22;1322;53.256;10.386;2024-03-02T01:39:39;10.60;99.90
2625;DHT22;1322;53.256;10.386;2024-03-02T01:42:05;10.50;99.90
2625;DHT22;1322;53.256;10.386;2024-03-02T01:44:30;10.50;99.90
2625;DHT22;1322;53.256;10.386;2024-03-02T01:46:58;10.50;99.90
2625;DHT22;1322;53.256;10.386;2024-03-02T01:49:24;10.20;99.90
2625;DHT22;1322;53.256;10.386;2024-03-02T01:51:50;10.20;99.90
2625;DHT22;1322;53.256;10.386;2024-03-02T01:54:16;10.20;99.90
2625;DHT22;1322;53.256;10.386;2024-03-02T01:56:41;10.20;99.90
2625;DHT22;1322;53.256;10.386;2024-03-02T01:59:07;10.20;99.90
2625;DHT22;1322;53.256;10.386;2024-03-02T02:01:32;10.20;99.90
2625;DHT22;1322;53.256;10.386;2024-03-02T02:03:58;10.10;99.90
2625;DHT22;1322;53.256;10.386;2024-03-02T02:06:24;10.20;99.90
2625;DHT22;1322;53.256;10.386;2024-03-02T02:08:50;10.20;99.90
2625;DHT22;1322;53.256;10.386;2024-03-02T02:11:16;10.20;99.90
2625;DHT22;1322;53.256;10.386;2024-03-02T02:13:42;10.20;99.90
2625;DHT22;1322;53.256;10.386;2024-03-02T02:16:08;10.10;99.90
2625;DHT22;1322;53.256;10.386;2024-03-02T02:18:34;10.10;99.90
2625;DHT22;1322;53.256;10.386;2024-03-02T02:21:02;10.10;99.90
2625;DHT22;1322;53.256;10.386;2024-03-02T02:23:28;10.10;99.90
2625;DHT22;1322;53.256;10.386;2024-03-02T02:25:53;10.20;99.90
2625;DHT22;1322;53.256;10.386;2024-03-02T02:28:20;10.20;99.90
2625;DHT22;1322;53.256;10.386;2024-03-02T02:30:45;10.20;99.90
2625;DHT22;1322;53.256;10.386;2024-03-02T02:33:11;10.20;99.90
2625;DHT22;1322;53.256;10.386;2024-03-02T02:35:36;10.10;99.90
2625;DHT22;1322;53.256;10.386;2024-03-02T02:38:03;10.20;99.90
2625;DHT22;1322;53.256;10.386;2024-03-02T02:40:28;10.20;99.90
2625;DHT22;1322;53.256;10.386;2024-03-02T02:42:58;10.20;99.90
2625;DHT22;1322;53.256;10.386;2024-03-02T02:45:25;10.20;99.90
2625;DHT22;1322;53.256;10.386;2024-03-02T02:47:50;10.20;99.90
2625;DHT22;1322;53.256;10.386;2024-03-02T02:50:16;10.20;99.90
2625;DHT22;1322;53.256;10.386;2024-03-02T02:52:42;10.10;99.90
2625;DHT22;1322;53.256;10.386;2024-03-02T02:55:12;10.20;99.90
2625;DHT22;1322;53.256;10.386;2024-03-02T02:57:40;10.10;99.90
2625;DHT22;1322;53.256;10.386;2024-03-02T03:00:08;10.10;99.90
2625;DHT22;1322;53.256;10.386;2024-03-02T03:02:40;10.10;99.90
2625;DHT22;1322;53.256;10.386;2024-03-02T03:05:08;10.00;99.90
2625;DHT22;1322;53.256;10.386;2024-03-02T03:07:34;10.10;99.90
2625;DHT22;1322;53.256;10.386;2024-03-02T03:10:00;10.10;99.90
2625;DHT22;1322;53.256;10.386;2024-03-02T03:12:26;10.10;99.90
2625;DHT22;1322;53.256;10.386;2024-03-02T03:14:52;10.10;99.90
2625;DHT22;1322;53.256;10.386;2024-03-02T03:17:17;10.20;99.90
2625;DHT22;1322;53.256;10.386;2024-03-02T03:19:43;10.00;99.90
2625;DHT22;1322;53.256;10.386;2024-03-02T03:22:09;10.00;99.90
2625;DHT22;1322;53.256;10.386;2024-03-02T03:24:35;10.00;99.90
2625;DHT22;1322;53.256;10.386;2024-03-02T03:27:00;10.00;99.90
2625;DHT22;1322;53.256;10.386;2024-03-02T03:29:26;10.10;99.90
2625;DHT22;1322;53.256;10.386;2024-03-02T03:31:52;10.20;99.90
2625;DHT22;1322;53.256;10.386;2024-03-02T03:34:17;10.10;99.90
2625;DHT22;1322;53.256;10.386;2024-03-02T03:36:43;10.20;99.90
2625;DHT22;1322;53.256;10.386;2024-03-02T03:39:09;10.10;99.90
2625;DHT22;1322;53.256;10.386;2024-03-02T03:41:34;10.20;99.90
2625;DHT22;1322;53.256;10.386;2024-03-02T03:44:00;10.20;99.90
2625;DHT22;1322;53.256;10.386;2024-03-02T03:46:25;10.20;99.90
2625;DHT22;1322;53.256;10.386;2024-03-02T03:48:51;10.20;99.90
2625;DHT22;1322;53.256;10.386;2024-03-02T03:51:17;10.20;99.90
2625;DHT22;1322;53.256;10.386;2024-03-02T03:53:42;10.10;99.90
2625;DHT22;1322;53.256;10.386;2024-03-02T03:56:08;10.10;99.90
2625;DHT22;1322;53.256;10.386;2024-03-02T03:58:34;9.90;99.90
2625;DHT22;1322;53.256;10.386;2024-03-02T04:00:59;10.00;99.90
2625;DHT22;1322;53.256;10.386;2024-03-02T04:03:25;10.00;99.90
2625;DHT22;1322;53.256;10.386;2024-03-02T04:05:50;10.00;99.90
2625;DHT22;1322;53.256;10.386;2024-03-02T04:08:16;10.10;99.90
2625;DHT22;1322;53.256;10.386;2024-03-02T04:10:42;9.90;99.90
2625;DHT22;1322;53.256;10.386;2024-03-02T04:13:08;9.80;99.90
2625;DHT22;1322;53.256;10.386;2024-03-02T04:15:33;9.90;99.90
2625;DHT22;1322;53.256;10.386;2024-03-02T04:17:59;9.90;99.90
2625;DHT22;1322;53.256;10.386;2024-03-02T04:20:25;10.00;99.90
2625;DHT22;1322;53.256;10.386;2024-03-02T04:22:51;10.10;99.90
2625;DHT22;1322;53.256;10.386;2024-03-02T04:25:16;9.90;99.90
2625;DHT22;1322;53.256;10.386;2024-03-02T04:27:42;9.90;99.90
2625;DHT22;1322;53.256;10.386;2024-03-02T04:30:08;9.90;99.90
2625;DHT22;1322;53.256;10.386;2024-03-02T04:32:34;9.90;99.90
2625;DHT22;1322;53.256;10.386;2024-03-02T04:35:01;9.80;99.90
2625;DHT22;1322;53.256;10.386;2024-03-02T04:37:27;9.80;99.90
2625;DHT22;1322;53.256;10.386;2024-03-02T04:39:53;9.80;99.90
2625;DHT22;1322;53.256;10.386;2024-03-02T04:42:19;9.70;99.90
2625;DHT22;1322;53.256;10.386;2024-03-02T04:44:44;9.80;99.90
2625;DHT22;1322;53.256;10.386;2024-03-02T04:47:10;9.90;99.90
2625;DHT22;1322;53.256;10.386;2024-03-02T04:49:36;9.90;99.90
2625;DHT22;1322;53.256;10.386;2024-03-02T04:52:02;9.90;99.90
2625;DHT22;1322;53.256;10.386;2024-03-02T04:54:28;10.00;99.90
2625;DHT22;1322;53.256;10.386;2024-03-02T04:56:53;10.00;99.90
2625;DHT22;1322;53.256;10.386;2024-03-02T04:59:19;9.90;99.90
2625;DHT22;1322;53.256;10.386;2024-03-02T05:01:45;9.80;99.90
2625;DHT22;1322;53.256;10.386;2024-03-02T05:04:11;9.80;99.90
2625;DHT22;1322;53.256;10.386;2024-03-02T05:06:38;9.90;99.90
2625;DHT22;1322;53.256;10.386;2024-03-02T05:09:05;9.90;99.90
2625;DHT22;1322;53.256;10.386;2024-03-02T05:11:30;9.90;99.90
2625;DHT22;1322;53.256;10.386;2024-03-02T05:14:06;10.00;99.90
2625;DHT22;1322;53.256;10.386;2024-03-02T05:16:35;10.00;99.90
2625;DHT22;1322;53.256;10.386;2024-03-02T05:19:03;10.00;99.90
2625;DHT22;1322;53.256;10.386;2024-03-02T05:21:30;9.90;99.90
2625;DHT22;1322;53.256;10.386;2024-03-02T05:23:56;9.90;99.90
2625;DHT22;1322;53.256;10.386;2024-03-02T05:26:21;9.90;99.90
2625;DHT22;1322;53.256;10.386;2024-03-02T05:28:47;9.70;99.90
2625;DHT22;1322;53.256;10.386;2024-03-02T05:31:15;9.60;99.90
2625;DHT22;1322;53.256;10.386;2024-03-02T05:33:42;9.70;99.90
2625;DHT22;1322;53.256;10.386;2024-03-02T05:36:08;9.70;99.90
2625;DHT22;1322;53.256;10.386;2024-03-02T05:38:37;9.70;99.90
2625;DHT22;1322;53.256;10.386;2024-03-02T05:41:03;9.70;99.90
2625;DHT22;1322;53.256;10.386;2024-03-02T05:43:29;9.70;99.90
2625;DHT22;1322;53.256;10.386;2024-03-02T05:45:54;9.70;99.90
2625;DHT22;1322;53.256;10.386;2024-03-02T05:48:20;9.80;99.90
2625;DHT22;1322;53.256;10.386;2024-03-02T05:50:46;9.80;99.90
2625;DHT22;1322;53.256;10.386;2024-03-02T05:53:11;9.70;99.90
2625;DHT22;1322;53.256;10.386;2024-03-02T05:55:37;9.60;99.90
2625;DHT22;1322;53.256;10.386;2024-03-02T05:58:03;9.60;99.90
2625;DHT22;1322;53.256;10.386;2024-03-02T06:00:32;9.70;99.90
2625;DHT22;1322;53.256;10.386;2024-03-02T06:02:57;9.70;99.90
2625;DHT22;1322;53.256;10.386;2024-03-02T06:05:23;9.80;99.90
2625;DHT22;1322;53.256;10.386;2024-03-02T06:07:50;9.90;99.90
2625;DHT22;1322;53.256;10.386;2024-03-02T06:10:16;9.80;99.90
2625;DHT22;1322;53.256;10.386;2024-03-02T06:12:42;9.80;99.90
2625;DHT22;1322;53.256;10.386;2024-03-02T06:15:08;9.90;99.90
2625;DHT22;1322;53.256;10.386;2024-03-02T06:17:35;9.90;99.90
2625;DHT22;1322;53.256;10.386;2024-03-02T06:20:00;9.90;99.90
2625;DHT22;1322;53.256;10.386;2024-03-02T06:22:26;9.90;99.90
2625;DHT22;1322;53.256;10.386;2024-03-02T06:24:52;9.80;99.90
2625;DHT22;1322;53.256;10.386;2024-03-02T06:27:17;9.80;99.90
2625;DHT22;1322;53.256;10.386;2024-03-02T06:29:43;9.70;99.90
2625;DHT22;1322;53.256;10.386;2024-03-02T06:32:09;9.70;99.90
2625;DHT22;1322;53.256;10.386;2024-03-02T06:34:34;9.80;99.90
2625;DHT22;1322;53.256;10.386;2024-03-02T06:37:00;9.80;99.90
2625;DHT22;1322;53.256;10.386;2024-03-02T06:39:26;9.70;99.90
2625;DHT22;1322;53.256;10.386;2024-03-02T06:41:52;9.60;99.90
2625;DHT22;1322;53.256;10.386;2024-03-02T06:44:17;9.50;99.90
2625;DHT22;1322;53.256;10.386;2024-03-02T06:46:43;9.40;99.90
2625;DHT22;1322;53.256;10.386;2024-03-02T06:49:09;9.50;99.90
2625;DHT22;1322;53.256;10.386;2024-03-02T06:51:36;9.40;99.90
2625;DHT22;1322;53.256;10.386;2024-03-02T06:54:02;9.50;99.90
2625;DHT22;1322;53.256;10.386;2024-03-02T06:56:28;9.60;99.90
2625;DHT22;1322;53.256;10.386;2024-03-02T06:58:54;9.70;99.90
2625;DHT22;1322;53.256;10.386;2024-03-02T07:01:19;9.50;99.90
2625;DHT22;1322;53.256;10.386;2024-03-02T07:03:47;9.60;99.90
2625;DHT22;1322;53.256;10.386;2024-03-02T07:06:13;9.70;99.90
2625;DHT22;1322;53.256;10.386;2024-03-02T07:08:39;9.70;99.90
2625;DHT22;1322;53.256;10.386;2024-03-02T07:11:04;9.80;99.90
2625;DHT22;1322;53.256;10.386;2024-03-02T07:13:30;9.70;99.90
2625;DHT22;1322;53.256;10.386;2024-03-02T07:15:55;9.80;99.90
2625;DHT22;1322;53.256;10.386;2024-03-02T07:18:40;9.80;99.90
2625;DHT22;1322;53.256;10.386;2024-03-02T07:21:16;9.70;99.90
2625;DHT22;1322;53.256;10.386;2024-03-02T07:23:42;9.70;99.90
2625;DHT22;1322;53.256;10.386;2024-03-02T07:26:07;9.80;99.90
2625;DHT22;1322;53.256;10.386;2024-03-02T07:28:33;9.90;99.90
2625;DHT22;1322;53.256;10.386;2024-03-02T07:31:00;9.90;99.90
2625;DHT22;1322;53.256;10.386;2024-03-02T07:33:26;9.90;99.90
2625;DHT22;1322;53.256;10.386;2024-03-02T07:35:52;10.10;99.90
2625;DHT22;1322;53.256;10.386;2024-03-02T07:38:19;10.30;99.90
2625;DHT22;1322;53.256;10.386;2024-03-02T07:40:44;10.20;99.90
2625;DHT22;1322;53.256;10.386;2024-03-02T07:43:10;10.40;99.90
2625;DHT22;1322;53.256;10.386;2024-03-02T07:45:36;10.50;99.90
2625;DHT22;1322;53.256;10.386;2024-03-02T07:48:02;10.60;99.90
2625;DHT22;1322;53.256;10.386;2024-03-02T07:50:29;10.60;99.90
2625;DHT22;1322;53.256;10.386;2024-03-02T07:52:56;10.70;99.90
2625;DHT22;1322;53.256;10.386;2024-03-02T07:55:21;10.70;99.90
2625;DHT22;1322;53.256;10.386;2024-03-02T07:57:49;10.80;99.90
2625;DHT22;1322;53.256;10.386;2024-03-02T08:00:15;10.90;99.90
2625;DHT22;1322;53.256;10.386;2024-03-02T08:02:41;11.00;99.90
2625;DHT22;1322;53.256;10.386;2024-03-02T08:05:08;11.10;99.90
2625;DHT22;1322;53.256;10.386;2024-03-02T08:07:34;11.20;99.90
2625;DHT22;1322;53.256;10.386;2024-03-02T08:10:00;11.20;99.90
2625;DHT22;1322;53.256;10.386;2024-03-02T08:12:25;11.30;99.90
2625;DHT22;1322;53.256;10.386;2024-03-02T08:14:51;11.50;99.90
2625;DHT22;1322;53.256;10.386;2024-03-02T08:17:17;11.50;99.90
2625;DHT22;1322;53.256;10.386;2024-03-02T08:19:43;11.60;99.90
2625;DHT22;1322;53.256;10.386;2024-03-02T08:22:10;11.60;99.90
2625;DHT22;1322;53.256;10.386;2024-03-02T08:24:36;11.60;99.90
2625;DHT22;1322;53.256;10.386;2024-03-02T08:27:02;11.70;99.90
2625;DHT22;1322;53.256;10.386;2024-03-02T08:29:31;11.70;99.90
2625;DHT22;1322;53.256;10.386;2024-03-02T08:31:57;11.60;99.90
2625;DHT22;1322;53.256;10.386;2024-03-02T08:34:22;11.50;99.90
2625;DHT22;1322;53.256;10.386;2024-03-02T08:36:48;11.60;99.90
2625;DHT22;1322;53.256;10.386;2024-03-02T08:39:14;11.70;99.90
2625;DHT22;1322;53.256;10.386;2024-03-02T08:41:49;11.90;99.90
2625;DHT22;1322;53.256;10.386;2024-03-02T08:44:16;11.90;99.90
2625;DHT22;1322;53.256;10.386;2024-03-02T08:46:41;12.00;99.90
2625;DHT22;1322;53.256;10.386;2024-03-02T08:49:07;12.00;99.90
2625;DHT22;1322;53.256;10.386;2024-03-02T08:51:33;12.30;99.90
2625;DHT22;1322;53.256;10.386;2024-03-02T08:53:59;12.40;99.90
2625;DHT22;1322;53.256;10.386;2024-03-02T08:56:26;12.40;99.90
2625;DHT22;1322;53.256;10.386;2024-03-02T08:58:52;12.50;99.90
2625;DHT22;1322;53.256;10.386;2024-03-02T09:01:18;12.60;99.90
2625;DHT22;1322;53.256;10.386;2024-03-02T09:03:45;12.60;99.90
2625;DHT22;1322;53.256;10.386;2024-03-02T09:06:13;12.60;99.90
2625;DHT22;1322;53.256;10.386;2024-03-02T09:08:39;12.70;99.90
2625;DHT22;1322;53.256;10.386;2024-03-02T09:11:09;13.00;99.90
2625;DHT22;1322;53.256;10.386;2024-03-02T09:13:35;13.20;99.90
2625;DHT22;1322;53.256;10.386;2024-03-02T09:16:01;13.30;99.90
2625;DHT22;1322;53.256;10.386;2024-03-02T09:18:26;13.40;99.90
2625;DHT22;1322;53.256;10.386;2024-03-02T09:20:52;13.10;99.90
2625;DHT22;1322;53.256;10.386;2024-03-02T09:23:18;13.20;99.90
2625;DHT22;1322;53.256;10.386;2024-03-02T09:25:43;13.30;99.90
2625;DHT22;1322;53.256;10.386;2024-03-02T09:28:11;13.30;99.90
2625;DHT22;1322;53.256;10.386;2024-03-02T09:30:36;13.30;99.90
2625;DHT22;1322;53.256;10.386;2024-03-02T09:33:02;13.10;99.90
2625;DHT22;1322;53.256;10.386;2024-03-02T09:35:28;13.10;99.90
2625;DHT22;1322;53.256;10.386;2024-03-02T09:37:55;13.20;99.90
2625;DHT22;1322;53.256;10.386;2024-03-02T09:40:22;13.20;99.90
2625;DHT22;1322;53.256;10.386;2024-03-02T09:42:48;13.30;99.90
2625;DHT22;1322;53.256;10.386;2024-03-02T09:45:23;13.30;99.90
2625;DHT22;1322;53.256;10.386;2024-03-02T09:47:49;13.50;99.90
2625;DHT22;1322;53.256;10.386;2024-03-02T09:50:15;13.40;99.90
2625;DHT22;1322;53.256;10.386;2024-03-02T09:52:42;13.60;99.90
2625;DHT22;1322;53.256;10.386;2024-03-02T09:55:09;13.70;99.90
2625;DHT22;1322;53.256;10.386;2024-03-02T09:57:38;13.70;99.90
2625;DHT22;1322;53.256;10.386;2024-03-02T10:00:04;13.80;99.90
2625;DHT22;1322;53.256;10.386;2024-03-02T10:02:30;13.90;99.90
2625;DHT22;1322;53.256;10.386;2024-03-02T10:04:56;13.80;99.90
2625;DHT22;1322;53.256;10.386;2024-03-02T10:07:21;13.80;99.90
2625;DHT22;1322;53.256;10.386;2024-03-02T10:09:48;13.80;99.90
2625;DHT22;1322;53.256;10.386;2024-03-02T10:12:16;13.80;99.90
2625;DHT22;1322;53.256;10.386;2024-03-02T10:14:42;13.70;99.90
2625;DHT22;1322;53.256;10.386;2024-03-02T10:17:09;13.80;99.90
2625;DHT22;1322;53.256;10.386;2024-03-02T10:19:36;13.70;99.90
2625;DHT22;1322;53.256;10.386;2024-03-02T10:22:03;13.70;99.90
2625;DHT22;1322;53.256;10.386;2024-03-02T10:24:43;13.90;99.90
2625;DHT22;1322;53.256;10.386;2024-03-02T10:27:27;13.70;99.90
2625;DHT22;1322;53.256;10.386;2024-03-02T10:29:58;13.60;99.90
2625;DHT22;1322;53.256;10.386;2024-03-02T10:41:36;13.90;99.90
2625;DHT22;1322;53.256;10.386;2024-03-02T10:44:09;14.20;99.90
2625;DHT22;1322;53.256;10.386;2024-03-02T10:46:36;14.30;99.90
2625;DHT22;1322;53.256;10.386;2024-03-02T10:49:04;14.30;99.90
2625;DHT22;1322;53.256;10.386;2024-03-02T10:51:32;14.50;99.90
2625;DHT22;1322;53.256;10.386;2024-03-02T10:54:01;14.40;99.90
2625;DHT22;1322;53.256;10.386;2024-03-02T11:01:39;14.30;99.90
2625;DHT22;1322;53.256;10.386;2024-03-02T11:04:08;14.40;99.90
2625;DHT22;1322;53.256;10.386;2024-03-02T11:06:36;14.60;99.90
2625;DHT22;1322;53.256;10.386;2024-03-02T11:09:06;14.70;99.90
2625;DHT22;1322;53.256;10.386;2024-03-02T11:11:41;14.80;99.90
2625;DHT22;1322;53.256;10.386;2024-03-02T11:14:13;14.60;99.90
2625;DHT22;1322;53.256;10.386;2024-03-02T11:16:39;14.40;99.90
2625;DHT22;1322;53.256;10.386;2024-03-02T11:19:09;14.40;99.90
2625;DHT22;1322;53.256;10.386;2024-03-02T11:21:36;14.40;99.90
2625;DHT22;1322;53.256;10.386;2024-03-02T11:26:47;14.30;99.90
2625;DHT22;1322;53.256;10.386;2024-03-02T11:32:02;14.60;99.90
2625;DHT22;1322;53.256;10.386;2024-03-02T11:34:33;14.50;99.90
2625;DHT22;1322;53.256;10.386;2024-03-02T11:37:00;14.40;99.90
2625;DHT22;1322;53.256;10.386;2024-03-02T11:39:30;14.10;99.90
2625;DHT22;1322;53.256;10.386;2024-03-02T11:41:57;14.20;99.90
2625;DHT22;1322;53.256;10.386;2024-03-02T11:44:28;14.20;99.90
2625;DHT22;1322;53.256;10.386;2024-03-02T11:49:39;14.10;99.90
2625;DHT22;1322;53.256;10.386;2024-03-02T11:52:08;14.10;99.90
2625;DHT22;1322;53.256;10.386;2024-03-02T11:54:40;14.20;99.90
2625;DHT22;1322;53.256;10.386;2024-03-02T11:57:07;14.30;99.90
2625;DHT22;1322;53.256;10.386;2024-03-02T11:59:33;14.30;99.90
2625;DHT22;1322;53.256;10.386;2024-03-02T12:01:59;14.30;99.90
2625;DHT22;1322;53.256;10.386;2024-03-02T12:04:26;14.30;99.90
2625;DHT22;1322;53.256;10.386;2024-03-02T12:07:10;14.40;99.90
2625;DHT22;1322;53.256;10.386;2024-03-02T12:09:36;14.30;99.90
2625;DHT22;1322;53.256;10.386;2024-03-02T12:12:09;14.30;99.90
2625;DHT22;1322;53.256;10.386;2024-03-02T12:14:38;14.10;99.90
2625;DHT22;1322;53.256;10.386;2024-03-02T12:17:05;14.10;99.90
2625;DHT22;1322;53.256;10.386;2024-03-02T12:19:32;14.10;99.90
2625;DHT22;1322;53.256;10.386;2024-03-02T12:21:59;14.10;99.90
2625;DHT22;1322;53.256;10.386;2024-03-02T12:24:27;14.00;99.90
2625;DHT22;1322;53.256;10.386;2024-03-02T12:26:53;14.20;99.90
2625;DHT22;1322;53.256;10.386;2024-03-02T12:29:20;14.30;99.90
2625;DHT22;1322;53.256;10.386;2024-03-02T12:31:48;14.50;99.90
2625;DHT22;1322;53.256;10.386;2024-03-02T12:34:15;14.60;99.90
2625;DHT22;1322;53.256;10.386;2024-03-02T12:36:41;14.60;99.90
2625;DHT22;1322;53.256;10.386;2024-03-02T12:39:10;14.50;99.90
2625;DHT22;1322;53.256;10.386;2024-03-02T12:41:39;14.60;99.90
2625;DHT22;1322;53.256;10.386;2024-03-02T12:44:05;14.80;99.90
2625;DHT22;1322;53.256;10.386;2024-03-02T12:46:34;15.10;99.90
2625;DHT22;1322;53.256;10.386;2024-03-02T12:49:12;15.30;99.90
2625;DHT22;1322;53.256;10.386;2024-03-02T12:51:39;15.40;99.90
2625;DHT22;1322;53.256;10.386;2024-03-02T12:54:06;15.40;99.90
2625;DHT22;1322;53.256;10.386;2024-03-02T12:56:32;15.40;99.90
2625;DHT22;1322;53.256;10.386;2024-03-02T12:58:59;15.10;99.90
2625;DHT22;1322;53.256;10.386;2024-03-02T13:01:28;15.40;99.90
2625;DHT22;1322;53.256;10.386;2024-03-02T13:03:54;15.20;99.90
2625;DHT22;1322;53.256;10.386;2024-03-02T13:06:21;15.40;99.90
2625;DHT22;1322;53.256;10.386;2024-03-02T13:08:47;15.50;99.90
2625;DHT22;1322;53.256;10.386;2024-03-02T13:11:13;15.50;99.90
2625;DHT22;1322;53.256;10.386;2024-03-02T13:13:40;15.70;99.90
2625;DHT22;1322;53.256;10.386;2024-03-02T13:16:14;15.90;99.90
2625;DHT22;1322;53.256;10.386;2024-03-02T13:18:41;15.80;99.90
2625;DHT22;1322;53.256;10.386;2024-03-02T13:21:08;15.90;99.90
2625;DHT22;1322;53.256;10.386;2024-03-02T13:23:34;15.80;99.90
2625;DHT22;1322;53.256;10.386;2024-03-02T13:26:01;15.90;99.90
2625;DHT22;1322;53.256;10.386;2024-03-02T13:28:27;16.00;99.90
2625;DHT22;1322;53.256;10.386;2024-03-02T13:30:53;15.90;99.90
2625;DHT22;1322;53.256;10.386;2024-03-02T13:33:19;15.80;99.90
2625;DHT22;1322;53.256;10.386;2024-03-02T13:35:49;15.70;99.90
2625;DHT22;1322;53.256;10.386;2024-03-02T13:38:17;15.70;99.90
2625;DHT22;1322;53.256;10.386;2024-03-02T13:40:43;15.40;99.90
2625;DHT22;1322;53.256;10.386;2024-03-02T13:43:14;15.10;99.90
2625;DHT22;1322;53.256;10.386;2024-03-02T13:45:42;15.10;99.90
2625;DHT22;1322;53.256;10.386;2024-03-02T13:48:11;15.10;99.90
2625;DHT22;1322;53.256;10.386;2024-03-02T13:50:38;15.00;99.90
2625;DHT22;1322;53.256;10.386;2024-03-02T13:53:23;15.00;99.90
2625;DHT22;1322;53.256;10.386;2024-03-02T13:55:59;15.00;99.90
2625;DHT22;1322;53.256;10.386;2024-03-02T13:58:25;15.10;99.90
2625;DHT22;1322;53.256;10.386;2024-03-02T14:00:52;15.10;99.90
2625;DHT22;1322;53.256;10.386;2024-03-02T14:03:18;15.20;99.90
2625;DHT22;1322;53.256;10.386;2024-03-02T14:05:43;15.20;99.90
2625;DHT22;1322;53.256;10.386;2024-03-02T14:08:11;15.00;99.90
2625;DHT22;1322;53.256;10.386;2024-03-02T14:10:38;14.70;99.90
2625;DHT22;1322;53.256;10.386;2024-03-02T14:13:04;14.80;99.90
2625;DHT22;1322;53.256;10.386;2024-03-02T14:15:30;15.00;99.90
2625;DHT22;1322;53.256;10.386;2024-03-02T14:17:56;15.00;99.90
2625;DHT22;1322;53.256;10.386;2024-03-02T14:20:22;14.60;99.90
2625;DHT22;1322;53.256;10.386;2024-03-02T14:22:49;14.60;99.90
2625;DHT22;1322;53.256;10.386;2024-03-02T14:25:14;14.60;99.90
2625;DHT22;1322;53.256;10.386;2024-03-02T14:27:40;14.60;99.90
2625;DHT22;1322;53.256;10.386;2024-03-02T14:30:06;14.50;99.90
2625;DHT22;1322;53.256;10.386;2024-03-02T14:32:32;14.40;99.90
2625;DHT22;1322;53.256;10.386;2024-03-02T14:34:58;14.20;99.90
2625;DHT22;1322;53.256;10.386;2024-03-02T14:37:23;14.10;99.90
2625;DHT22;1322;53.256;10.386;2024-03-02T14:39:49;14.30;99.90
2625;DHT22;1322;53.256;10.386;2024-03-02T14:42:15;14.50;99.90
2625;DHT22;1322;53.256;10.386;2024-03-02T14:44:41;14.50;99.90
2625;DHT22;1322;53.256;10.386;2024-03-02T14:47:07;14.50;99.90
2625;DHT22;1322;53.256;10.386;2024-03-02T14:49:33;14.60;99.90
2625;DHT22;1322;53.256;10.386;2024-03-02T14:52:02;14.80;99.90
2625;DHT22;1322;53.256;10.386;2024-03-02T14:54:27;14.70;99.90
2625;DHT22;1322;53.256;10.386;2024-03-02T14:56:53;14.70;99.90
2625;DHT22;1322;53.256;10.386;2024-03-02T14:59:18;14.80;99.90
2625;DHT22;1322;53.256;10.386;2024-03-02T15:01:44;14.80;99.90
2625;DHT22;1322;53.256;10.386;2024-03-02T15:04:10;14.60;99.90
2625;DHT22;1322;53.256;10.386;2024-03-02T15:06:36;14.60;99.90
2625;DHT22;1322;53.256;10.386;2024-03-02T15:09:01;14.70;99.90
2625;DHT22;1322;53.256;10.386;2024-03-02T15:11:27;14.80;99.90
2625;DHT22;1322;53.256;10.386;2024-03-02T15:13:53;14.90;99.90
2625;DHT22;1322;53.256;10.386;2024-03-02T15:16:19;14.70;99.90
2625;DHT22;1322;53.256;10.386;2024-03-02T15:18:44;14.60;99.90
2625;DHT22;1322;53.256;10.386;2024-03-02T15:21:11;14.70;99.90
2625;DHT22;1322;53.256;10.386;2024-03-02T15:23:37;14.60;99.90
2625;DHT22;1322;53.256;10.386;2024-03-02T15:26:02;14.50;99.90
2625;DHT22;1322;53.256;10.386;2024-03-02T15:28:28;14.60;99.90
2625;DHT22;1322;53.256;10.386;2024-03-02T15:30:54;14.50;99.90
2625;DHT22;1322;53.256;10.386;2024-03-02T15:33:20;14.50;99.90
2625;DHT22;1322;53.256;10.386;2024-03-02T15:35:46;14.50;99.90
2625;DHT22;1322;53.256;10.386;2024-03-02T15:38:11;14.30;99.90
2625;DHT22;1322;53.256;10.386;2024-03-02T15:40:40;14.30;99.90
2625;DHT22;1322;53.256;10.386;2024-03-02T15:43:06;14.40;99.90
2625;DHT22;1322;53.256;10.386;2024-03-02T15:45:31;14.40;99.90
2625;DHT22;1322;53.256;10.386;2024-03-02T15:48:00;14.30;99.90
2625;DHT22;1322;53.256;10.386;2024-03-02T15:50:27;14.40;99.90
2625;DHT22;1322;53.256;10.386;2024-03-02T15:52:52;14.50;99.90
2625;DHT22;1322;53.256;10.386;2024-03-02T15:55:21;14.30;99.90
2625;DHT22;1322;53.256;10.386;2024-03-02T15:57:47;14.30;99.90
2625;DHT22;1322;53.256;10.386;2024-03-02T16:00:13;14.30;99.90
2625;DHT22;1322;53.256;10.386;2024-03-02T16:02:39;14.30;99.90
2625;DHT22;1322;53.256;10.386;2024-03-02T16:05:05;14.30;99.90
2625;DHT22;1322;53.256;10.386;2024-03-02T16:07:31;14.10;99.90
2625;DHT22;1322;53.256;10.386;2024-03-02T16:09:57;14.10;99.90
2625;DHT22;1322;53.256;10.386;2024-03-02T16:12:23;14.00;99.90
2625;DHT22;1322;53.256;10.386;2024-03-02T16:14:49;14.00;99.90